Ana Sayfa
METAR-TAF:

METAR-TAF

Havaalanları :

Bacău, Romanya

Enlem: 46-35N, Boylam: 026-58E, yükseklik: 184 m

Güncel hava durumu gözlemi

Rapor saat 13:30 UTC de 38 dakika önce yapıldı.
Rüzgar güneydan 10 kt
Sıcaklık 17°C
Nem 32%
Basınç 1020 hPa
Görüş mesafesi 10 km veya daha fazla
6500 ft yükseklikte az bulutlu

METAR: LRBC 211330Z 17010KT 9999 FEW065 17/00 Q1020

Saat: 17:08 (14:08 UTC)

Tahmin

Rapor saat 11:00 UTC de 3 saat ve 8 dakika önce yapıldı.
Ayın 21'si saat 12 UTC'den ayın 21'si saat 21 UTC'ye kadar geçerli Tahmin
Rüzgar güney/güneydoğudan 10 kt
Görüş mesafesi 10 km veya daha fazla
1500 m altında bulut yok ve kümülonimbus yok
Olasılık 30% :
Geçici
ayın 21'si saat 12 UTC'den ayın 21'si saat 15 UTC'ye kadar
Görüş mesafesi: 5000 m
4000 ft yükseklikte parçalı bulutlu, Kümülonimbus.
gök gürültülü fırtına, hafif yağmur

TAF: LRBC 211100Z 2112/2121 15010KT CAVOK PROB30 TEMPO 2112/2115 5000 -TSRA SCT040CB

4.000'den fazla havaalanı için hava durumu gözlemleri ve tahminleri (METAR ve TAF raporları).

Kullanılabilir istasyonlar harita üzerinde sarı ve kırmızı noktalarla gösterilir.

İstasyonun adını görmek için fareyi noktanın üzerinde gezdirin.

Sonrasında hava gözlem ve tahminlerini görmek için tıklayın.

Haritayı değiştirmek için: yaklaştırmak için siyah artı işaretli yeşil düğmeye ve uzaklaştırmak için de eksi işaretli düğmeye hızla tıklayın; bitişik haritalar için yeşil okları kullanın.


METAR-TAF: